Time;durP1;ratioP1;P1;durP2;ratioP2;P2;SDS_P1;SDS_P2;PMS_P1;PMS_P2;Temp;Humidity;BMP_temperature;BMP_pressure;BME280_temperature;BME280_humidity;BME280_pressure;Samples;Min_cycle;Max_cycle;Signal;HPM_P1;HPM_P2
2023/07/16 00:00:15;;;;;;;4.85;3.77;;;;;;;20.07;90.18;100365.97;1443300;89;21436;-76
2023/07/16 00:02:41;;;;;;;5.30;3.70;;;;;;;20.02;92.02;100370.66;1453614;89;21371;-75
2023/07/16 00:05:08;;;;;;;5.17;3.47;;;;;;;19.97;92.11;100368.29;1462762;89;21399;-75
2023/07/16 00:07:35;;;;;;;5.30;3.52;;;;;;;19.92;91.80;100366.22;1457414;89;21363;-77
2023/07/16 00:10:02;;;;;;;6.83;4.87;;;;;;;19.89;92.68;100362.61;1452606;89;21363;-77
2023/07/16 00:12:29;;;;;;;8.63;4.62;;;;;;;19.86;92.87;100367.59;1448931;89;21504;-76
2023/07/16 00:14:56;;;;;;;7.15;4.33;;;;;;;19.82;93.37;100368.50;1458365;89;21445;-77
2023/07/16 00:17:23;;;;;;;6.37;4.30;;;;;;;19.75;93.24;100365.84;1456565;88;21898;-77
2023/07/16 00:19:49;;;;;;;11.45;3.80;;;;;;;19.69;93.49;100369.89;1457800;89;21500;-76
2023/07/16 00:22:15;;;;;;;5.67;4.17;;;;;;;19.66;93.45;100371.12;1457075;89;21783;-77
2023/07/16 00:24:41;;;;;;;9.48;3.60;;;;;;;19.64;93.65;100367.78;1451314;89;21541;-77
2023/07/16 00:27:08;;;;;;;5.28;3.75;;;;;;;19.63;93.99;100370.17;1459488;89;21385;-77
2023/07/16 00:29:34;;;;;;;5.03;4.00;;;;;;;19.62;94.60;100367.16;1459811;89;22435;-77
2023/07/16 00:32:00;;;;;;;5.47;3.87;;;;;;;19.59;94.01;100363.55;1460950;89;21378;-77
2023/07/16 00:34:26;;;;;;;5.47;4.43;;;;;;;19.54;94.42;100366.88;1457683;89;21348;-77
2023/07/16 00:36:53;;;;;;;6.73;3.90;;;;;;;19.47;94.75;100359.33;1447686;89;22234;-77
2023/07/16 00:39:19;;;;;;;7.90;3.80;;;;;;;19.43;94.82;100362.66;1457461;89;21533;-76
2023/07/16 00:41:45;;;;;;;7.10;4.20;;;;;;;19.38;94.48;100357.38;1465793;89;21384;-76
2023/07/16 00:44:11;;;;;;;6.70;4.00;;;;;;;19.35;94.96;100360.47;1459824;89;21355;-77
2023/07/16 00:46:39;;;;;;;6.93;5.00;;;;;;;19.33;95.27;100366.58;1456735;89;21518;-76
2023/07/16 00:49:05;;;;;;;6.97;4.27;;;;;;;19.31;95.43;100367.30;1459443;89;21408;-76
2023/07/16 00:51:31;;;;;;;6.63;4.47;;;;;;;19.28;97.04;100361.52;1441449;89;22227;-77
2023/07/16 00:53:57;;;;;;;9.10;4.73;;;;;;;19.20;96.48;100358.52;1454677;89;21327;-77
2023/07/16 00:56:23;;;;;;;4.07;3.67;;;;;;;19.12;96.90;100359.53;1452682;89;21371;-76
2023/07/16 00:58:50;;;;;;;11.73;3.83;;;;;;;19.10;97.63;100360.77;1449717;89;22829;-76
2023/07/16 01:01:16;;;;;;;5.87;3.40;;;;;;;19.05;97.60;100363.27;1454085;89;21430;-77
2023/07/16 01:03:42;;;;;;;7.07;3.67;;;;;;;19.03;97.84;100357.27;1454060;89;21488;-76
2023/07/16 01:06:34;;;;;;;4.97;4.03;;;;;;;19.00;97.90;100354.47;1459674;89;21423;-76
2023/07/16 01:09:20;;;;;;;4.07;3.60;;;;;;;18.99;97.67;100347.95;1461629;89;21496;-76
2023/07/16 01:11:49;;;;;;;4.63;4.03;;;;;;;18.91;97.99;100343.12;1453742;89;21362;-77
2023/07/16 01:14:20;;;;;;;4.40;3.93;;;;;;;18.83;97.86;100346.51;1455507;89;21356;-76
2023/07/16 01:16:46;;;;;;;4.77;3.70;;;;;;;18.78;97.96;100341.74;1454915;89;21363;-75
2023/07/16 01:19:15;;;;;;;5.03;3.73;;;;;;;18.76;98.63;100339.80;1456856;89;22287;-75
2023/07/16 01:22:18;;;;;;;4.77;3.10;;;;;;;18.74;99.49;100339.69;1457057;89;21533;-75
2023/07/16 01:25:22;;;;;;;6.00;3.77;;;;;;;18.67;99.30;100339.13;1459461;89;21356;-75
2023/07/16 01:28:23;;;;;;;4.97;3.40;;;;;;;18.61;99.85;100342.59;1460157;89;21363;-75
2023/07/16 01:30:52;;;;;;;8.33;3.80;;;;;;;18.56;99.46;100344.23;1460933;89;21399;-75
2023/07/16 01:33:21;;;;;;;6.97;3.97;;;;;;;18.47;99.07;100348.45;1462587;89;21451;-75
2023/07/16 01:35:48;;;;;;;5.13;3.50;;;;;;;18.39;100.00;100340.59;1461672;89;22926;-75
2023/07/16 01:38:16;;;;;;;4.60;3.77;;;;;;;18.33;100.00;100340.06;1455287;89;21355;-75
2023/07/16 01:40:42;;;;;;;4.30;3.43;;;;;;;18.30;100.00;100343.14;1464671;89;21473;-75
2023/07/16 01:43:08;;;;;;;6.03;3.50;;;;;;;18.30;100.00;100343.14;1456359;89;21554;-75
2023/07/16 01:45:34;;;;;;;8.70;4.17;;;;;;;18.30;100.00;100337.78;1456020;89;21399;-77
2023/07/16 01:48:34;;;;;;;13.33;4.40;;;;;;;18.29;100.00;100338.78;1468763;89;21370;-77
2023/07/16 01:51:00;;;;;;;6.63;4.37;;;;;;;18.26;100.00;100336.52;1465033;89;21453;-77
2023/07/16 01:53:26;;;;;;;6.50;3.80;;;;;;;18.25;100.00;100340.23;1459031;89;21487;-76
2023/07/16 01:55:53;;;;;;;5.60;3.80;;;;;;;18.23;100.00;100339.08;1454763;89;21415;-76
2023/07/16 01:58:19;;;;;;;6.23;3.93;;;;;;;18.22;100.00;100340.62;1462395;89;21415;-76
2023/07/16 02:00:45;;;;;;;12.80;4.20;;;;;;;18.17;100.00;100348.43;1444356;89;21910;-77
2023/07/16 02:03:12;;;;;;;10.87;4.80;;;;;;;18.10;100.00;100348.41;1440917;89;22280;-77
2023/07/16 02:05:38;;;;;;;6.80;3.70;;;;;;;18.01;100.00;100346.41;1457178;89;21474;-76
2023/07/16 02:08:05;;;;;;;6.43;4.37;;;;;;;17.96;100.00;100348.84;1445540;89;21319;-75
2023/07/16 02:10:31;;;;;;;6.83;4.10;;;;;;;17.96;100.00;100346.69;1460480;89;21362;-76
2023/07/16 02:12:57;;;;;;;5.70;3.57;;;;;;;17.94;100.00;100347.39;1463841;89;21348;-78
2023/07/16 02:15:23;;;;;;;7.03;4.30;;;;;;;17.91;100.00;100351.28;1454425;89;22301;-77
2023/07/16 02:17:50;;;;;;;5.37;4.20;;;;;;;17.90;100.00;100349.64;1455429;89;21504;-78
2023/07/16 02:20:16;;;;;;;5.47;4.43;;;;;;;17.91;100.00;100353.96;1454778;89;21303;-77
2023/07/16 02:22:43;;;;;;;4.43;4.00;;;;;;;17.88;100.00;100350.34;1456560;89;22518;-77
2023/07/16 02:25:09;;;;;;;5.63;4.03;;;;;;;17.90;100.00;100354.17;1453514;89;21304;-77
2023/07/16 02:27:35;;;;;;;5.33;3.87;;;;;;;17.91;100.00;100355.81;1459212;88;21370;-77
2023/07/16 02:30:01;;;;;;;10.60;4.20;;;;;;;17.87;100.00;100353.23;1452028;89;22412;-77
2023/07/16 02:32:28;;;;;;;4.90;3.70;;;;;;;17.83;100.00;100347.42;1458013;89;21458;-77
2023/07/16 02:34:54;;;;;;;6.20;3.80;;;;;;;17.80;100.00;100357.19;1444805;89;21547;-77
2023/07/16 02:37:20;;;;;;;4.27;3.70;;;;;;;17.77;100.00;100357.55;1464065;89;21890;-77
2023/07/16 02:39:47;;;;;;;5.33;4.07;;;;;;;17.72;100.00;100354.63;1449942;89;21548;-77
2023/07/16 02:42:14;;;;;;;5.77;4.23;;;;;;;17.70;100.00;100348.66;1455091;89;21393;-77
2023/07/16 02:44:44;;;;;;;5.50;3.60;;;;;;;17.72;100.00;100349.27;1463357;89;21341;-77
2023/07/16 02:47:11;;;;;;;;;;;;;;;17.70;100.00;100347.33;1465605;89;21471;-77
2023/07/16 02:49:38;;;;;;;12.43;4.33;;;;;;;17.67;100.00;100352.55;1460902;89;20280;-77
2023/07/16 02:52:06;;;;;;;6.07;4.10;;;;;;;17.66;100.00;100354.08;1458621;89;21363;-77
2023/07/16 02:54:32;;;;;;;7.57;4.00;;;;;;;17.63;100.00;100357.14;1458981;89;21474;-77
2023/07/16 02:56:59;;;;;;;6.67;3.63;;;;;;;17.64;100.00;100353.47;1459120;89;21414;-79
2023/07/16 02:59:25;;;;;;;8.67;4.13;;;;;;;17.64;100.00;100358.30;1459592;89;21393;-79
2023/07/16 03:01:52;;;;;;;5.67;4.20;;;;;;;17.62;100.00;100355.50;1451226;89;21428;-79
2023/07/16 03:04:18;;;;;;;8.67;4.80;;;;;;;17.62;100.00;100353.64;1458186;89;22294;-79
2023/07/16 03:06:44;;;;;;;8.93;4.43;;;;;;;17.64;100.00;100351.61;1452552;89;21514;-79
2023/07/16 03:09:11;;;;;;;7.80;3.40;;;;;;;17.65;100.00;100351.09;1461721;89;21378;-78
2023/07/16 03:11:37;;;;;;;6.23;3.67;;;;;;;17.65;100.00;100348.42;1446627;89;21522;-78
2023/07/16 03:14:03;;;;;;;4.53;3.60;;;;;;;17.67;100.00;100353.07;1455631;89;22302;-78
2023/07/16 03:16:30;;;;;;;12.73;4.40;;;;;;;17.68;100.00;100349.36;1456707;89;21450;-79
2023/07/16 03:18:56;;;;;;;4.83;4.07;;;;;;;17.63;100.00;100345.10;1453891;89;21385;-78
2023/07/16 03:21:22;;;;;;;5.40;3.80;;;;;;;17.66;100.00;100350.88;1452052;89;22287;-78
2023/07/16 03:23:49;;;;;;;9.17;4.80;;;;;;;17.69;100.00;100356.36;1459543;89;21488;-78
2023/07/16 03:26:15;;;;;;;6.93;4.40;;;;;;;17.70;100.00;100358.03;1468130;89;21431;-78
2023/07/16 03:28:41;;;;;;;6.73;4.30;;;;;;;17.71;100.00;100357.00;1457707;89;21363;-79
2023/07/16 03:31:07;;;;;;;5.60;4.23;;;;;;;17.73;100.00;100351.77;1450727;89;21518;-78
2023/07/16 03:33:33;;;;;;;5.27;3.90;;;;;;;17.77;100.00;100350.86;1452791;89;22338;-78
2023/07/16 03:35:59;;;;;;;7.10;4.40;;;;;;;17.78;100.00;100353.87;1467564;89;22361;-80
2023/07/16 03:38:26;;;;;;;6.33;4.37;;;;;;;17.79;100.00;100355.55;1453627;89;21341;-79
2023/07/16 03:40:52;;;;;;;8.97;5.00;;;;;;;17.81;100.00;100357.52;1460061;89;21422;-79
2023/07/16 03:43:18;;;;;;;5.70;4.47;;;;;;;17.84;100.00;100354.45;1454197;89;21502;-78
2023/07/16 03:45:44;;;;;;;4.10;3.70;;;;;;;17.90;100.00;100354.17;1451465;89;21333;-79
2023/07/16 03:48:10;;;;;;;8.00;3.47;;;;;;;17.94;100.00;100356.23;1455882;89;21326;-79
2023/07/16 03:50:37;;;;;;;8.80;4.63;;;;;;;17.97;100.00;100359.86;1461425;89;21386;-79
2023/07/16 03:53:03;;;;;;;9.03;4.47;;;;;;;18.01;100.00;100365.16;1460025;89;21921;-80
2023/07/16 03:55:30;;;;;;;12.77;4.87;;;;;;;18.07;100.00;100364.02;1450791;89;21436;-79
2023/07/16 03:57:56;;;;;;;5.03;4.53;;;;;;;18.12;100.00;100362.41;1457591;89;22212;-80
2023/07/16 04:00:23;;;;;;;9.00;4.60;;;;;;;18.20;100.00;100362.77;1465387;89;21407;-80
2023/07/16 04:02:49;;;;;;;4.93;4.50;;;;;;;18.28;100.00;100355.90;1448084;89;21378;-80
2023/07/16 04:05:15;;;;;;;6.33;5.20;;;;;;;18.34;100.00;100348.92;1465573;89;22422;-80
2023/07/16 04:07:41;;;;;;;5.47;4.50;;;;;;;18.42;100.00;100355.45;1464764;89;21887;-80
2023/07/16 04:10:08;;;;;;;6.80;4.67;;;;;;;18.48;100.00;100356.80;1455653;89;22233;-80
2023/07/16 04:12:34;;;;;;;7.77;5.13;;;;;;;18.56;100.00;100358.48;1453746;89;21474;-80
2023/07/16 04:15:00;;;;;;;9.93;5.30;;;;;;;18.62;100.00;100359.02;1457446;89;21341;-78
2023/07/16 04:17:27;;;;;;;5.70;4.83;;;;;;;18.69;100.00;100367.06;1451955;89;21585;-80
2023/07/16 04:19:53;;;;;;;12.37;5.37;;;;;;;18.74;100.00;100365.16;1462135;89;21459;-80
2023/07/16 04:22:19;;;;;;;9.13;4.43;;;;;;;18.82;100.00;100361.77;1459969;88;22302;-80
2023/07/16 04:24:45;;;;;;;9.30;4.33;;;;;;;18.91;100.00;100367.77;1458119;89;21347;-80
2023/07/16 04:27:11;;;;;;;6.47;4.30;;;;;;;19.02;100.00;100363.64;1455183;89;21489;-80
2023/07/16 04:29:37;;;;;;;17.07;5.90;;;;;;;19.08;100.00;100365.53;1457016;89;21422;-79
2023/07/16 04:32:05;;;;;;;8.55;4.90;;;;;;;19.12;100.00;100366.77;1452857;89;21540;-79
2023/07/16 04:34:31;;;;;;;11.40;5.35;;;;;;;19.20;100.00;100363.06;1455492;89;21282;-79
2023/07/16 04:36:57;;;;;;;5.78;4.78;;;;;;;19.28;100.00;100369.05;1453571;89;21423;-78
2023/07/16 04:39:23;;;;;;;8.13;5.53;;;;;;;19.36;100.00;100362.14;1457494;89;22382;-79
2023/07/16 04:41:49;;;;;;;10.32;4.83;;;;;;;19.48;100.00;100370.88;1460412;89;21311;-80
2023/07/16 04:44:15;;;;;;;6.72;5.28;;;;;;;19.57;100.00;100375.03;1457073;89;21534;-79
2023/07/16 04:46:41;;;;;;;5.33;4.75;;;;;;;19.67;100.00;100374.11;1454722;89;22243;-79
2023/07/16 04:49:08;;;;;;;9.35;5.17;;;;;;;19.78;100.00;100378.84;1459253;89;21356;-79
2023/07/16 04:51:34;;;;;;;11.93;5.28;;;;;;;19.91;100.00;100378.01;1457608;89;21392;-77
2023/07/16 04:54:00;;;;;;;5.97;5.12;;;;;;;20.02;100.00;100379.20;1455064;89;21503;-78
2023/07/16 04:56:26;;;;;;;10.35;5.62;;;;;;;20.12;99.65;100382.28;1435280;89;21319;-79
2023/07/16 04:58:53;;;;;;;9.38;5.30;;;;;;;20.19;99.20;100387.11;1455866;89;22523;-79
2023/07/16 05:01:20;;;;;;;10.60;4.95;;;;;;;20.22;98.55;100380.48;1457336;89;21423;-77
2023/07/16 05:03:46;;;;;;;6.20;4.78;;;;;;;20.32;98.77;100378.72;1461851;89;21371;-78
2023/07/16 05:06:13;;;;;;;7.03;5.05;;;;;;;20.44;98.77;100389.10;1459657;89;21400;-78
2023/07/16 05:08:39;;;;;;;8.55;5.08;;;;;;;20.56;98.30;100386.06;1460995;89;21488;-78
2023/07/16 05:11:05;;;;;;;7.92;5.37;;;;;;;20.64;97.74;100383.14;1457723;89;21385;-78
2023/07/16 05:13:31;;;;;;;8.83;5.15;;;;;;;20.72;97.16;100390.96;1463898;88;21333;-78
2023/07/16 05:15:57;;;;;;;9.10;5.58;;;;;;;20.79;96.50;100387.41;1459506;89;22294;-78
2023/07/16 05:18:24;;;;;;;8.83;5.50;;;;;;;20.80;95.87;100401.14;1454303;89;21369;-78
2023/07/16 05:20:50;;;;;;;6.35;5.35;;;;;;;20.92;96.38;100395.41;1456059;89;21415;-78
2023/07/16 05:23:17;;;;;;;10.13;5.33;;;;;;;21.06;96.17;100393.44;1452690;89;21355;-78
2023/07/16 05:25:50;;;;;;;8.05;6.55;;;;;;;21.21;95.90;100394.50;1452772;89;22242;-77
2023/07/16 05:28:18;;;;;;;7.53;6.33;;;;;;;21.29;95.20;100394.20;1459346;89;21428;-77
2023/07/16 05:30:44;;;;;;;8.70;5.58;;;;;;;21.38;94.66;100392.95;1461469;89;21409;-79
2023/07/16 05:33:11;;;;;;;7.47;5.30;;;;;;;21.48;94.43;100396.48;1456809;88;21416;-77
2023/07/16 05:35:39;;;;;;;10.08;5.97;;;;;;;21.61;94.31;100401.77;1455238;88;21371;-77
2023/07/16 05:38:05;;;;;;;8.33;5.62;;;;;;;21.74;93.83;100403.50;1462995;89;21303;-78
2023/07/16 05:40:32;;;;;;;8.55;6.12;;;;;;;21.82;93.39;100412.12;1456405;89;21437;-77
2023/07/16 05:42:58;;;;;;;8.45;4.62;;;;;;;21.91;93.24;100407.27;1439921;89;22604;-78
2023/07/16 05:45:24;;;;;;;9.50;5.35;;;;;;;22.05;93.35;100407.42;1448863;89;21370;-78
2023/07/16 05:47:50;;;;;;;6.78;4.67;;;;;;;22.23;93.27;100416.07;1452040;88;21600;-78
2023/07/16 05:50:17;;;;;;;8.05;5.47;;;;;;;22.38;92.87;100421.08;1457305;89;21422;-79
2023/07/16 05:52:43;;;;;;;9.98;5.40;;;;;;;22.50;92.14;100421.99;1454525;89;21400;-78
2023/07/16 05:55:09;;;;;;;7.00;5.40;;;;;;;22.61;91.62;100422.27;1456365;89;21334;-77
2023/07/16 05:57:35;;;;;;;10.28;4.72;;;;;;;22.74;91.37;100424.80;1455288;89;21495;-77
2023/07/16 06:00:04;;;;;;;8.98;5.50;;;;;;;22.82;90.31;100424.48;1459187;89;22235;-78
2023/07/16 06:02:30;;;;;;;8.33;5.67;;;;;;;22.94;90.40;100421.30;1468623;88;21444;-79
2023/07/16 06:04:56;;;;;;;7.85;5.33;;;;;;;23.09;90.10;100419.56;1454217;89;21593;-78
2023/07/16 06:07:22;;;;;;;9.53;4.90;;;;;;;23.14;88.60;100422.40;1457025;89;21885;-79
2023/07/16 06:09:48;;;;;;;6.62;5.00;;;;;;;23.21;89.06;100426.34;1459036;89;21326;-76
2023/07/16 06:12:14;;;;;;;9.05;5.53;;;;;;;23.34;89.36;100430.20;1454288;89;22346;-77
2023/07/16 06:14:40;;;;;;;7.85;4.83;;;;;;;23.47;88.69;100434.55;1458166;89;21267;-76
2023/07/16 06:17:06;;;;;;;5.80;4.47;;;;;;;23.56;88.06;100433.18;1454875;88;21429;-76
2023/07/16 06:19:33;;;;;;;9.55;5.03;;;;;;;23.70;87.80;100434.29;1465455;89;22375;-77
2023/07/16 06:21:59;;;;;;;6.40;4.45;;;;;;;23.87;87.08;100427.97;1456781;88;21578;-76
2023/07/16 06:24:26;;;;;;;5.50;4.70;;;;;;;24.00;86.11;100423.41;1455713;89;22250;-77
2023/07/16 06:26:52;;;;;;;8.60;4.78;;;;;;;24.08;85.45;100423.02;1457365;89;21349;-77
2023/07/16 06:29:18;;;;;;;6.72;4.33;;;;;;;24.15;84.95;100428.33;1458497;89;21348;-77
2023/07/16 06:31:57;;;;;;;11.80;5.28;;;;;;;24.24;85.32;100426.36;1457207;89;21370;-78
2023/07/16 06:34:24;;;;;;;5.40;4.47;;;;;;;24.41;85.01;100422.92;1452939;89;21510;-77
2023/07/16 06:36:51;;;;;;;6.17;4.60;;;;;;;24.54;83.49;100422.67;1447326;89;21334;-76
2023/07/16 06:39:17;;;;;;;7.30;4.80;;;;;;;24.64;83.34;100422.88;1449513;89;21260;-77
2023/07/16 06:41:43;;;;;;;10.35;5.15;;;;;;;24.76;83.09;100429.06;1466454;89;21378;-78
2023/07/16 06:44:10;;;;;;;10.35;4.87;;;;;;;24.87;82.89;100429.27;1457152;89;21489;-77
2023/07/16 06:46:36;;;;;;;12.23;4.85;;;;;;;25.01;82.14;100433.33;1459519;89;22265;-78
2023/07/16 06:49:02;;;;;;;7.42;5.03;;;;;;;25.14;81.45;100424.91;1463739;89;21326;-77
2023/07/16 06:51:30;;;;;;;7.97;4.55;;;;;;;25.26;80.62;100421.32;1455846;89;21548;-77
2023/07/16 06:53:56;;;;;;;6.62;4.85;;;;;;;25.36;80.47;100420.16;1457088;89;21319;-77
2023/07/16 06:56:22;;;;;;;6.72;4.35;;;;;;;25.38;79.54;100425.61;1456249;89;21504;-77
2023/07/16 06:58:48;;;;;;;5.25;4.45;;;;;;;25.45;79.57;100422.73;1456784;89;21289;-78
2023/07/16 07:01:14;;;;;;;6.08;4.67;;;;;;;25.56;79.27;100424.55;1462051;89;22265;-78
2023/07/16 07:03:40;;;;;;;6.95;4.92;;;;;;;25.72;79.82;100420.20;1451871;89;21422;-78
2023/07/16 07:06:07;;;;;;;8.13;4.72;;;;;;;25.82;78.98;100418.16;1458839;89;21371;-78
2023/07/16 07:08:33;;;;;;;5.70;4.37;;;;;;;25.92;79.32;100415.61;1458177;89;21948;-78
2023/07/16 07:10:59;;;;;;;4.95;4.03;;;;;;;26.08;79.24;100414.77;1457654;89;22363;-78
2023/07/16 07:13:25;;;;;;;10.00;3.65;;;;;;;26.25;79.12;100415.26;1459720;89;21334;-78
2023/07/16 07:15:52;;;;;;;9.25;4.17;;;;;;;26.31;76.47;100417.77;1468182;89;21356;-76
2023/07/16 07:18:18;;;;;;;9.78;4.67;;;;;;;26.42;76.77;100413.30;1453033;89;22438;-76
2023/07/16 07:20:44;;;;;;;7.92;4.67;;;;;;;26.49;76.42;100409.84;1448656;89;21400;-75
2023/07/16 07:23:10;;;;;;;6.03;4.20;;;;;;;26.60;76.81;100416.25;1462666;89;21356;-75
2023/07/16 07:25:36;;;;;;;8.43;4.67;;;;;;;26.70;76.42;100420.45;1461681;89;22110;-76
2023/07/16 07:28:03;;;;;;;4.70;3.95;;;;;;;26.86;75.80;100420.06;1461292;89;22266;-76
2023/07/16 07:30:29;;;;;;;3.98;3.47;;;;;;;27.01;75.66;100418.84;1459155;89;21333;-75
2023/07/16 07:32:56;;;;;;;6.45;4.15;;;;;;;27.20;75.25;100421.24;1453298;89;21585;-76
2023/07/16 07:35:22;;;;;;;6.35;4.50;;;;;;;27.34;74.63;100417.02;1468224;89;21596;-76
2023/07/16 07:37:48;;;;;;;9.95;4.00;;;;;;;27.49;74.04;100419.58;1456282;89;21326;-76
2023/07/16 07:40:14;;;;;;;5.05;3.67;;;;;;;27.64;73.58;100426.48;1457794;89;21296;-74
2023/07/16 07:42:40;;;;;;;4.95;3.40;;;;;;;27.74;72.71;100421.13;1462170;89;21326;-75
2023/07/16 07:45:07;;;;;;;6.33;3.50;;;;;;;27.86;72.12;100418.23;1455915;89;21290;-75
2023/07/16 07:47:34;;;;;;;4.10;3.40;;;;;;;27.97;71.71;100416.41;1461828;89;21363;-74
2023/07/16 07:50:00;;;;;;;8.13;3.25;;;;;;;28.10;71.40;100414.56;1456880;89;21370;-75
2023/07/16 07:52:27;;;;;;;4.37;3.40;;;;;;;28.16;70.30;100412.14;1454557;89;21541;-75
2023/07/16 07:54:54;;;;;;;5.53;3.60;;;;;;;28.23;69.75;100411.38;1463611;89;21399;-74
2023/07/16 07:57:20;;;;;;;5.10;3.58;;;;;;;28.32;69.78;100414.40;1453612;89;22184;-73
2023/07/16 07:59:47;;;;;;;9.58;3.65;;;;;;;28.43;68.82;100411.22;1454634;89;21463;-74
2023/07/16 08:02:13;;;;;;;8.30;3.25;;;;;;;28.49;66.97;100406.06;1452470;89;21442;-74
2023/07/16 08:04:39;;;;;;;4.95;3.20;;;;;;;28.59;67.41;100410.70;1465279;89;21319;-74
2023/07/16 08:07:06;;;;;;;4.65;3.22;;;;;;;28.71;67.43;100413.45;1458022;89;22242;-75
2023/07/16 08:09:32;;;;;;;6.08;3.40;;;;;;;28.78;66.87;100420.84;1461229;89;21377;-75
2023/07/16 08:11:58;;;;;;;3.52;3.05;;;;;;;28.88;67.02;100426.03;1441598;89;21524;-74
2023/07/16 08:14:24;;;;;;;6.72;3.22;;;;;;;29.00;66.97;100425.22;1456038;89;21519;-74
2023/07/16 08:16:50;;;;;;;5.53;3.75;;;;;;;29.13;66.71;100424.73;1456925;89;21297;-74
2023/07/16 08:19:16;;;;;;;5.47;3.02;;;;;;;29.26;65.91;100426.64;1456610;89;21415;-73
2023/07/16 08:21:44;;;;;;;5.42;3.12;;;;;;;29.23;61.27;100426.13;1468047;89;21385;-73
2023/07/16 08:24:10;;;;;;;4.35;3.40;;;;;;;29.22;64.21;100430.47;1457777;89;22413;-74
2023/07/16 08:26:37;;;;;;;3.75;3.08;;;;;;;29.30;64.22;100431.84;1455817;89;21334;-74
2023/07/16 08:29:03;;;;;;;4.08;3.02;;;;;;;29.43;64.59;100429.92;1459017;89;21370;-74
2023/07/16 08:31:29;;;;;;;6.80;3.25;;;;;;;29.56;63.43;100426.66;1459161;89;21466;-74
2023/07/16 08:33:56;;;;;;;9.00;3.83;;;;;;;29.69;62.75;100426.66;1461543;89;21311;-73
2023/07/16 08:36:22;;;;;;;45.88;6.62;;;;;;;29.77;61.74;100427.47;1450409;89;21386;-74
2023/07/16 08:38:48;;;;;;;11.33;3.87;;;;;;;29.91;62.48;100426.36;1456887;89;22376;-74
2023/07/16 08:41:15;;;;;;;37.67;5.40;;;;;;;29.96;61.44;100414.07;1467319;89;21430;-75
2023/07/16 08:43:43;;;;;;;5.33;3.37;;;;;;;30.11;62.51;100411.84;1458108;89;21496;-74
2023/07/16 08:46:09;;;;;;;4.67;3.80;;;;;;;30.24;62.29;100414.02;1458681;89;21341;-73
2023/07/16 08:48:36;;;;;;;6.00;3.55;;;;;;;30.30;61.66;100413.45;1459156;89;21488;-74
2023/07/16 08:51:03;;;;;;;6.67;3.22;;;;;;;30.40;61.24;100411.21;1462308;89;21415;-75
2023/07/16 08:53:30;;;;;;;7.05;3.20;;;;;;;30.51;61.29;100412.25;1461965;89;21444;-76
2023/07/16 08:55:57;;;;;;;6.80;3.67;;;;;;;30.62;60.73;100410.84;1455228;89;21319;-74
2023/07/16 08:58:24;;;;;;;6.75;3.12;;;;;;;30.73;60.63;100415.96;1456048;89;21355;-74
2023/07/16 09:00:55;;;;;;;4.87;3.42;;;;;;;30.87;60.26;100413.98;1454551;89;21416;-74
2023/07/16 09:03:22;;;;;;;4.53;2.77;;;;;;;30.94;59.69;100411.20;1458344;89;21421;-76
2023/07/16 09:05:48;;;;;;;5.15;3.17;;;;;;;31.07;59.97;100414.39;1456857;89;21320;-75
2023/07/16 09:08:15;;;;;;;3.52;2.65;;;;;;;31.05;57.95;100412.52;1459098;89;22835;-75
2023/07/16 09:10:41;;;;;;;9.80;3.40;;;;;;;31.14;58.19;100410.80;1457509;89;21402;-75
2023/07/16 09:13:08;;;;;;;7.12;3.20;;;;;;;31.20;58.41;100413.75;1459939;89;21376;-72
2023/07/16 09:15:34;;;;;;;5.20;2.80;;;;;;;31.31;58.90;100413.13;1455039;89;22213;-71
2023/07/16 09:18:01;;;;;;;5.58;3.40;;;;;;;31.43;58.75;100416.33;1458216;89;21474;-70
2023/07/16 09:20:33;;;;;;;4.12;3.02;;;;;;;31.55;58.07;100418.68;1460567;89;21672;-78
2023/07/16 09:22:58;;;;;;;5.35;3.33;;;;;;;31.65;57.46;100414.46;1455196;88;21481;-73
2023/07/16 09:25:30;;;;;;;3.50;2.92;;;;;;;31.75;57.65;100410.83;1458951;89;21378;-73
2023/07/16 09:28:00;;;;;;;3.55;3.02;;;;;;;31.77;56.60;100405.89;1453952;89;21333;-73
2023/07/16 09:30:31;;;;;;;10.00;3.35;;;;;;;31.83;56.52;100406.91;1454681;89;21606;-76
2023/07/16 09:32:58;;;;;;;3.75;2.90;;;;;;;31.94;56.84;100404.91;1455852;89;21489;-75
2023/07/16 09:35:25;;;;;;;3.60;2.98;;;;;;;31.91;55.41;100403.57;1452774;89;21318;-76
2023/07/16 09:37:51;;;;;;;5.97;2.95;;;;;;;32.03;56.12;100410.56;1458001;89;21525;-76
2023/07/16 09:40:18;;;;;;;4.00;2.77;;;;;;;32.09;55.95;100403.36;1464341;89;21392;-75
2023/07/16 09:42:44;;;;;;;6.45;3.42;;;;;;;32.21;55.11;100396.09;1439147;89;21356;-75
2023/07/16 09:45:18;;;;;;;6.47;2.87;;;;;;;32.33;54.51;100392.93;1439456;89;21407;-75
2023/07/16 09:47:44;;;;;;;5.90;2.95;;;;;;;32.45;51.63;100403.45;1455487;89;22471;-75
2023/07/16 09:50:11;;;;;;;3.55;2.87;;;;;;;32.57;51.21;100396.48;1454018;89;21836;-75
2023/07/16 09:52:42;;;;;;;3.85;3.00;;;;;;;32.66;51.21;100398.00;1457374;89;21385;-76
2023/07/16 09:55:10;;;;;;;3.42;2.70;;;;;;;32.77;51.30;100398.11;1457270;89;22221;-75
2023/07/16 09:57:40;;;;;;;3.42;2.80;;;;;;;32.89;51.19;100390.81;1382208;89;21246;-75
2023/07/16 10:00:13;;;;;;;4.05;2.80;;;;;;;32.80;41.97;100389.30;1379718;91;21349;-75
2023/07/16 10:02:41;;;;;;;10.72;2.95;;;;;;;32.87;42.52;100393.59;1491127;89;21363;-76
2023/07/16 10:05:16;;;;;;;5.42;3.10;;;;;;;32.93;42.15;100389.65;1540927;89;22222;-74
2023/07/16 10:07:43;;;;;;;5.05;2.70;;;;;;;33.05;42.05;100387.84;1386321;89;21327;-75
2023/07/16 10:10:11;;;;;;;8.18;3.95;;;;;;;33.16;41.58;100391.49;1540754;89;21331;-75
2023/07/16 10:12:40;;;;;;;6.50;2.65;;;;;;;33.29;41.01;100390.45;1382077;89;21275;-75
2023/07/16 10:15:06;;;;;;;5.08;3.77;;;;;;;33.35;40.88;100381.05;1384044;89;21290;-75
2023/07/16 10:17:34;;;;;;;4.17;2.40;;;;;;;33.41;40.68;100386.70;1380657;89;21319;-75
2023/07/16 10:20:12;;;;;;;4.40;2.95;;;;;;;33.47;40.82;100389.04;1382646;89;21453;-75
2023/07/16 10:22:41;;;;;;;3.60;2.52;;;;;;;33.56;40.46;100388.38;1540866;89;21172;-76
2023/07/16 10:25:21;;;;;;;5.72;2.55;;;;;;;33.63;39.23;100390.96;1386687;89;22207;-77
2023/07/16 10:27:51;;;;;;;9.95;2.80;;;;;;;33.74;39.75;100390.78;1382426;89;21253;-78
2023/07/16 10:30:17;;;;;;;4.70;3.08;;;;;;;33.81;39.48;100388.47;1380594;89;22103;-77
2023/07/16 10:32:44;;;;;;;3.50;2.83;;;;;;;33.86;39.25;100383.66;1369020;89;21310;-76
2023/07/16 10:35:11;;;;;;;3.58;2.77;;;;;;;33.95;39.25;100381.02;1383295;89;21245;-76
2023/07/16 10:37:38;;;;;;;3.42;2.67;;;;;;;33.95;38.01;100381.59;1382997;89;21216;-76
2023/07/16 10:47:12;;;;;;;6.90;3.05;;;;;;;33.87;33.58;100385.31;1386596;92;21407;-78
2023/07/16 10:49:39;;;;;;;4.05;2.60;;;;;;;33.92;36.45;100373.40;1481416;93;21446;-76
2023/07/16 10:52:07;;;;;;;2.92;2.55;;;;;;;34.03;36.62;100376.75;1344270;93;21393;-80
2023/07/16 10:54:33;;;;;;;3.25;2.37;;;;;;;34.16;36.29;100374.60;1395629;92;22318;-76
2023/07/16 10:56:59;;;;;;;7.70;2.30;;;;;;;34.20;34.99;100370.67;1346819;92;21289;-75
2023/07/16 10:59:25;;;;;;;7.25;2.85;;;;;;;34.23;34.78;100367.31;1352169;92;21393;-75
2023/07/16 11:01:51;;;;;;;3.40;2.22;;;;;;;34.14;35.06;100368.03;1346180;92;22258;-75
2023/07/16 11:04:17;;;;;;;4.72;2.92;;;;;;;34.16;35.77;100368.30;1352131;92;21415;-75
2023/07/16 11:06:44;;;;;;;8.13;3.40;;;;;;;34.10;35.25;100371.15;1395988;92;21636;-79
2023/07/16 11:09:22;;;;;;;5.60;2.35;;;;;;;34.18;35.48;100365.48;1419298;92;22352;-79
2023/07/16 11:11:48;;;;;;;5.58;2.15;;;;;;;34.25;35.55;100363.70;1418094;92;21590;-80
2023/07/16 11:14:14;;;;;;;9.10;2.30;;;;;;;34.39;34.68;100361.75;1413885;92;21406;-79
2023/07/16 11:16:40;;;;;;;3.15;2.35;;;;;;;34.46;34.97;100368.98;1412071;92;21413;-80
2023/07/16 11:19:07;;;;;;;5.25;2.20;;;;;;;34.45;34.23;100357.76;1421406;88;21502;-79
2023/07/16 11:21:34;;;;;;;2.70;2.45;;;;;;;34.43;34.77;100359.19;1466938;88;21296;-80
2023/07/16 11:24:12;;;;;;;5.97;2.40;;;;;;;34.48;34.88;100355.77;1530950;90;21434;-79
2023/07/16 11:26:39;;;;;;;5.45;2.35;;;;;;;34.50;34.45;100363.14;1381386;89;21349;-80
2023/07/16 11:29:15;;;;;;;3.77;2.30;;;;;;;34.54;33.83;100360.02;1378971;90;21217;-79